Time;durP1;ratioP1;P1;durP2;ratioP2;P2;SDS_P1;SDS_P2;PMS_P1;PMS_P2;Temp;Humidity;BMP_temperature;BMP_pressure;BME280_temperature;BME280_humidity;BME280_pressure;Samples;Min_cycle;Max_cycle;Signal;HPM_P1;HPM_P2
2022/06/17 00:00:30;;;;;;;5.83;1.90;;;18.20;70.40;;;;;;5030433;28;20460;-48
2022/06/17 00:02:56;;;;;;;3.43;2.07;;;18.40;70.80;;;;;;5030436;28;20509;-48
2022/06/17 00:05:23;;;;;;;3.37;1.90;;;18.10;70.80;;;;;;5030736;28;20433;-48
2022/06/17 00:07:50;;;;;;;4.03;1.80;;;18.20;71.20;;;;;;5031097;28;20436;-48
2022/06/17 00:10:20;;;;;;;4.20;1.70;;;18.10;71.20;;;;;;5030436;28;20492;-49
2022/06/17 00:12:47;;;;;;;3.43;1.80;;;18.10;71.60;;;;;;5030555;28;20449;-48
2022/06/17 00:15:14;;;;;;;3.70;2.30;;;18.10;71.60;;;;;;5030552;28;20441;-49
2022/06/17 00:17:44;;;;;;;2.50;1.73;;;18.10;71.90;;;;;;5030795;28;20429;-48
2022/06/17 00:20:16;;;;;;;4.43;1.43;;;18.00;71.90;;;;;;5030522;28;20906;-48
2022/06/17 00:22:44;;;;;;;2.33;1.60;;;18.30;72.30;;;;;;5031133;28;20901;-48
2022/06/17 00:25:20;;;;;;;3.17;2.00;;;18.00;71.90;;;;;;5030836;28;20484;-48
2022/06/17 00:27:46;;;;;;;6.00;1.70;;;18.00;72.10;;;;;;5030871;28;20547;-48
2022/06/17 00:30:17;;;;;;;6.33;2.20;;;17.90;72.20;;;;;;5030214;28;20441;-48
2022/06/17 00:32:46;;;;;;;3.47;1.60;;;18.00;72.20;;;;;;5030879;28;20436;-48
2022/06/17 00:35:13;;;;;;;6.87;2.37;;;17.90;72.20;;;;;;5030648;28;20435;-48
2022/06/17 00:37:41;;;;;;;3.40;1.70;;;17.70;72.10;;;;;;5029177;28;20448;-48
2022/06/17 00:40:12;;;;;;;5.70;2.20;;;17.70;72.10;;;;;;5030056;28;20447;-47
2022/06/17 00:42:39;;;;;;;5.63;2.27;;;17.90;72.60;;;;;;5037693;22;21037;-51
2022/06/17 00:45:15;;;;;;;3.37;2.07;;;17.90;72.50;;;;;;5011310;28;20483;-52
2022/06/17 00:47:50;;;;;;;3.00;1.90;;;17.80;72.50;;;;;;5010021;28;20456;-51
2022/06/17 00:50:24;;;;;;;3.07;2.00;;;17.60;72.40;;;;;;5009467;28;20491;-53
2022/06/17 00:52:59;;;;;;;3.00;1.90;;;17.80;72.60;;;;;;4993531;28;20520;-53
2022/06/17 00:55:30;;;;;;;4.10;1.90;;;17.80;72.60;;;;;;4993426;28;20489;-52
2022/06/17 00:57:57;;;;;;;3.83;2.20;;;17.70;72.60;;;;;;4993504;28;20897;-52
2022/06/17 01:00:26;;;;;;;3.30;2.10;;;17.80;72.70;;;;;;4992974;28;20514;-52
2022/06/17 01:02:59;;;;;;;4.00;2.40;;;17.90;73.00;;;;;;4994155;28;20466;-51
2022/06/17 01:05:31;;;;;;;5.27;2.70;;;17.70;73.00;;;;;;5014797;28;20429;-51
2022/06/17 01:08:02;;;;;;;6.73;3.50;;;17.80;73.10;;;;;;5014864;28;20448;-52
2022/06/17 01:10:29;;;;;;;5.03;3.27;;;17.80;73.50;;;;;;4996983;28;20453;-51
2022/06/17 01:12:59;;;;;;;6.37;2.97;;;17.70;73.40;;;;;;5014622;28;20445;-51
2022/06/17 01:15:28;;;;;;;6.03;2.90;;;17.50;73.50;;;;;;4996985;28;20473;-51
2022/06/17 01:17:59;;;;;;;6.20;2.83;;;17.70;74.00;;;;;;4996702;28;20453;-52
2022/06/17 01:20:27;;;;;;;4.87;2.43;;;17.90;74.40;;;;;;4996470;28;20490;-51
2022/06/17 01:22:57;;;;;;;5.10;2.07;;;17.70;74.60;;;;;;4996664;28;20624;-50
2022/06/17 01:25:26;;;;;;;3.73;2.07;;;17.50;74.60;;;;;;4996687;28;20496;-52
2022/06/17 01:27:57;;;;;;;3.87;1.87;;;17.20;74.40;;;;;;4996634;28;20458;-52
2022/06/17 01:30:27;;;;;;;2.90;1.70;;;17.60;74.90;;;;;;5013987;28;20442;-51
2022/06/17 01:32:58;;;;;;;3.90;2.00;;;17.50;75.50;;;;;;4996580;28;20476;-52
2022/06/17 01:35:27;;;;;;;3.83;1.77;;;18.00;76.20;;;;;;4996765;28;20801;-52
2022/06/17 01:37:56;;;;;;;4.27;2.07;;;17.80;75.90;;;;;;4996782;28;20452;-53
2022/06/17 01:40:27;;;;;;;3.83;1.90;;;17.50;75.80;;;;;;4996322;28;20468;-52
2022/06/17 01:42:55;;;;;;;3.20;1.90;;;17.40;76.20;;;;;;4996491;28;20575;-52
2022/06/17 01:45:22;;;;;;;4.83;2.47;;;17.40;76.00;;;;;;4996458;28;20475;-52
2022/06/17 01:47:49;;;;;;;3.33;1.80;;;17.40;76.30;;;;;;4996414;28;20456;-52
2022/06/17 01:50:19;;;;;;;3.60;2.00;;;17.30;76.30;;;;;;4996107;28;20453;-51
2022/06/17 01:52:53;;;;;;;5.30;2.37;;;17.30;76.40;;;;;;4996411;28;20588;-52
2022/06/17 01:55:27;;;;;;;3.80;2.17;;;17.60;77.00;;;;;;4996434;28;20445;-51
2022/06/17 01:58:01;;;;;;;4.00;2.10;;;17.10;76.50;;;;;;4996315;28;20531;-52
2022/06/17 02:00:32;;;;;;;4.10;1.87;;;17.20;76.80;;;;;;4995969;28;20798;-52
2022/06/17 02:03:06;;;;;;;5.90;2.17;;;17.30;77.00;;;;;;4996094;28;20484;-52
2022/06/17 02:05:36;;;;;;;3.30;1.80;;;17.20;77.30;;;;;;4996136;28;20483;-53
2022/06/17 02:08:05;;;;;;;4.77;2.20;;;16.90;77.50;;;;;;4996426;28;20445;-52
2022/06/17 02:10:35;;;;;;;3.40;2.30;;;17.20;77.90;;;;;;5013502;28;20791;-52
2022/06/17 02:13:04;;;;;;;4.67;2.30;;;17.20;78.10;;;;;;4996096;28;20455;-52
2022/06/17 02:15:39;;;;;;;4.50;2.60;;;16.70;77.60;;;;;;5013332;28;20483;-52
2022/06/17 02:18:19;;;;;;;3.97;2.30;;;17.10;77.90;;;;;;4995859;28;20941;-51
2022/06/17 02:20:57;;;;;;;7.63;2.37;;;16.90;78.20;;;;;;4995822;28;21029;-52
2022/06/17 02:23:28;;;;;;;2.90;1.80;;;16.90;78.00;;;;;;4995972;28;20982;-51
2022/06/17 02:25:57;;;;;;;4.80;2.20;;;17.20;78.80;;;;;;5013443;28;20437;-52
2022/06/17 02:28:26;;;;;;;4.70;2.27;;;16.80;78.30;;;;;;5013097;28;20774;-52
2022/06/17 02:30:53;;;;;;;4.50;2.30;;;16.70;78.60;;;;;;4995564;28;20544;-51
2022/06/17 02:33:20;;;;;;;4.07;2.00;;;17.20;80.20;;;;;;4995755;28;20449;-52
2022/06/17 02:35:50;;;;;;;3.37;1.80;;;17.40;79.80;;;;;;5013427;28;20443;-52
2022/06/17 02:38:19;;;;;;;3.80;2.40;;;16.50;79.00;;;;;;4995790;28;20742;-53
2022/06/17 02:40:51;;;;;;;5.00;2.50;;;17.20;79.80;;;;;;4995313;28;20453;-53
2022/06/17 02:43:24;;;;;;;3.30;2.00;;;16.60;79.40;;;;;;4995889;28;20460;-52
2022/06/17 02:45:55;;;;;;;8.90;3.20;;;16.80;79.70;;;;;;4995589;28;20896;-52
2022/06/17 02:48:25;;;;;;;3.23;2.40;;;16.80;79.80;;;;;;4995574;28;20445;-52
2022/06/17 02:50:54;;;;;;;6.07;2.83;;;17.10;80.20;;;;;;4995656;28;20449;-52
2022/06/17 02:53:24;;;;;;;4.30;2.90;;;17.30;80.60;;;;;;4995486;28;20444;-52
2022/06/17 02:55:51;;;;;;;3.77;2.47;;;16.80;80.20;;;;;;4995341;28;20459;-52
2022/06/17 02:58:29;;;;;;;4.10;2.60;;;16.80;80.40;;;;;;4995236;28;20453;-52
2022/06/17 03:00:58;;;;;;;7.40;2.73;;;16.80;80.60;;;;;;4995099;28;20468;-52
2022/06/17 03:03:26;;;;;;;4.53;2.87;;;16.50;80.50;;;;;;4995127;28;20865;-52
2022/06/17 03:05:55;;;;;;;4.50;2.60;;;16.80;80.90;;;;;;4995147;28;20543;-52
2022/06/17 03:08:24;;;;;;;6.47;3.20;;;16.60;80.80;;;;;;5012567;28;20437;-51
2022/06/17 03:10:52;;;;;;;3.00;2.30;;;16.50;80.50;;;;;;4994943;28;20453;-52
2022/06/17 03:13:24;;;;;;;5.50;2.80;;;16.60;81.00;;;;;;5012527;28;20432;-53
2022/06/17 03:15:53;;;;;;;4.40;2.40;;;16.50;80.90;;;;;;4994840;28;20835;-52
2022/06/17 03:18:21;;;;;;;3.50;2.60;;;16.70;81.20;;;;;;5012396;28;20440;-52
2022/06/17 03:20:49;;;;;;;6.43;3.43;;;16.60;81.10;;;;;;4994552;28;20899;-52
2022/06/17 03:23:22;;;;;;;6.17;3.37;;;16.70;81.20;;;;;;4994702;28;20453;-51
2022/06/17 03:25:55;;;;;;;5.50;2.73;;;16.80;81.50;;;;;;4993724;28;21012;-51
2022/06/17 03:28:30;;;;;;;4.00;2.90;;;16.50;81.20;;;;;;5011760;28;20954;-51
2022/06/17 03:31:04;;;;;;;4.17;3.03;;;16.70;81.50;;;;;;4994611;28;20535;-52
2022/06/17 03:33:36;;;;;;;7.87;2.73;;;17.10;82.00;;;;;;4994815;28;20885;-53
2022/06/17 03:36:10;;;;;;;10.30;3.03;;;16.80;81.70;;;;;;4994237;28;20448;-52
2022/06/17 03:38:42;;;;;;;5.50;3.27;;;17.00;82.10;;;;;;4994159;28;20811;-52
2022/06/17 03:41:13;;;;;;;6.93;3.70;;;16.80;81.90;;;;;;4994104;28;20477;-51
2022/06/17 03:43:45;;;;;;;4.83;3.07;;;16.90;82.10;;;;;;4994296;28;20470;-52
2022/06/17 03:46:14;;;;;;;7.77;2.73;;;16.80;82.10;;;;;;4994340;28;20480;-52
2022/06/17 03:48:45;;;;;;;5.40;2.80;;;16.90;82.20;;;;;;5011356;28;20441;-53
2022/06/17 03:51:17;;;;;;;2.83;2.33;;;17.10;82.60;;;;;;4994054;28;20566;-52
2022/06/17 03:53:46;;;;;;;7.30;2.47;;;17.10;82.60;;;;;;4994143;28;20456;-52
2022/06/17 03:56:17;;;;;;;2.73;2.40;;;16.90;82.10;;;;;;5011454;28;20908;-52
2022/06/17 03:58:46;;;;;;;5.00;2.30;;;17.00;82.30;;;;;;5011439;28;20433;-52
2022/06/17 04:01:16;;;;;;;4.63;2.70;;;17.30;82.60;;;;;;4993792;28;20473;-51
2022/06/17 04:03:49;;;;;;;7.00;3.53;;;17.10;82.20;;;;;;4993933;28;20540;-52
2022/06/17 04:06:20;;;;;;;5.70;3.03;;;17.00;81.90;;;;;;4994003;28;20487;-52
2022/06/17 04:08:55;;;;;;;4.97;2.63;;;17.30;82.00;;;;;;4993638;28;20511;-52
2022/06/17 04:11:26;;;;;;;4.67;2.77;;;17.70;82.00;;;;;;4993676;28;20485;-52
2022/06/17 04:13:55;;;;;;;6.33;3.00;;;17.10;81.20;;;;;;4993945;28;20949;-52
2022/06/17 04:16:30;;;;;;;5.90;3.73;;;17.70;81.60;;;;;;4993755;28;20479;-52
2022/06/17 04:19:02;;;;;;;3.43;2.50;;;17.70;81.30;;;;;;5010854;28;20404;-52
2022/06/17 04:21:29;;;;;;;6.90;3.20;;;17.90;81.20;;;;;;4993920;28;20464;-51
2022/06/17 04:23:56;;;;;;;3.70;2.77;;;17.90;80.80;;;;;;4993844;28;20454;-52
2022/06/17 04:26:53;;;;;;;5.70;3.73;;;17.90;80.50;;;;;;5011382;28;20434;-53
2022/06/17 04:29:30;;;;;;;5.10;3.27;;;18.40;80.60;;;;;;4993269;28;20454;-52
2022/06/17 04:32:02;;;;;;;3.70;2.93;;;18.50;80.30;;;;;;4993602;28;20488;-52
2022/06/17 04:34:29;;;;;;;7.87;2.90;;;18.40;79.90;;;;;;4993853;28;20480;-52
2022/06/17 04:37:02;;;;;;;6.10;2.57;;;18.50;79.70;;;;;;4994367;28;20477;-52
2022/06/17 04:39:38;;;;;;;7.43;3.40;;;18.50;79.60;;;;;;4997114;28;20961;-52
2022/06/17 04:42:34;;;;;;;7.83;3.37;;;18.40;79.60;;;;;;4991914;28;20999;-52
2022/06/17 04:45:03;;;;;;;4.53;3.30;;;18.30;79.90;;;;;;4997708;28;20485;-53
2022/06/17 04:47:33;;;;;;;7.13;3.43;;;18.30;80.10;;;;;;4997339;28;20450;-53
2022/06/17 04:50:11;;;;;;;6.27;3.63;;;18.40;80.40;;;;;;4997228;28;20822;-52
2022/06/17 04:52:44;;;;;;;5.57;3.53;;;18.50;80.40;;;;;;4997188;28;20475;-52
2022/06/17 04:55:37;;;;;;;9.90;4.20;;;18.80;80.50;;;;;;4977967;28;20440;-52
2022/06/17 04:58:13;;;;;;;4.47;2.90;;;18.70;80.10;;;;;;5014851;28;20949;-53
2022/06/17 05:00:45;;;;;;;5.90;3.07;;;19.10;80.30;;;;;;4996778;28;20477;-53
2022/06/17 05:03:12;;;;;;;4.40;2.97;;;18.80;79.50;;;;;;4997405;28;20994;-52
2022/06/17 05:05:57;;;;;;;5.47;2.63;;;19.20;79.80;;;;;;4996960;28;20509;-52
2022/06/17 05:08:29;;;;;;;7.47;4.73;;;19.50;79.90;;;;;;4996683;28;20795;-53
2022/06/17 05:11:02;;;;;;;7.90;3.57;;;18.90;79.00;;;;;;4996798;28;20942;-52
2022/06/17 05:13:36;;;;;;;6.00;3.73;;;19.30;79.20;;;;;;4996891;28;20556;-52
2022/06/17 05:16:12;;;;;;;6.13;3.67;;;19.40;79.10;;;;;;4996787;28;20593;-52
2022/06/17 05:18:40;;;;;;;5.77;3.20;;;19.60;79.00;;;;;;4996408;28;20542;-53
2022/06/17 05:21:18;;;;;;;6.57;3.03;;;19.70;78.90;;;;;;4996660;28;20475;-52
2022/06/17 05:23:46;;;;;;;6.47;3.27;;;19.80;78.70;;;;;;4996305;28;20466;-52
2022/06/17 05:26:13;;;;;;;5.00;4.17;;;19.70;78.40;;;;;;4996497;28;20490;-52
2022/06/17 05:28:39;;;;;;;11.87;4.37;;;19.90;78.80;;;;;;4995928;28;20789;-53
2022/06/17 05:31:10;;;;;;;7.03;4.33;;;20.00;78.70;;;;;;4996227;28;20569;-53
2022/06/17 05:33:46;;;;;;;8.63;3.83;;;19.90;78.50;;;;;;4996185;28;20445;-53
2022/06/17 05:36:13;;;;;;;7.40;3.97;;;20.00;78.40;;;;;;4996268;28;20455;-53
2022/06/17 05:38:39;;;;;;;6.73;3.87;;;19.80;77.90;;;;;;5013285;28;20428;-52
2022/06/17 05:41:08;;;;;;;7.77;4.53;;;20.10;78.20;;;;;;4995289;28;20516;-53
2022/06/17 05:43:34;;;;;;;5.13;4.10;;;20.20;78.00;;;;;;4995302;28;21012;-53
2022/06/17 05:46:02;;;;;;;7.87;3.63;;;20.20;77.70;;;;;;4995370;28;20961;-53
2022/06/17 05:48:45;;;;;;;4.80;4.10;;;20.30;77.60;;;;;;4994289;28;20449;-53
2022/06/17 05:51:35;;;;;;;5.90;4.33;;;20.30;77.40;;;;;;4995767;28;20474;-53
2022/06/17 05:54:10;;;;;;;8.30;4.20;;;20.40;77.30;;;;;;4994952;28;20545;-52
2022/06/17 05:57:03;;;;;;;9.93;5.07;;;20.20;77.00;;;;;;5009127;28;20452;-53
2022/06/17 05:59:30;;;;;;;10.37;4.47;;;20.50;77.00;;;;;;4995569;28;20556;-53
2022/06/17 06:01:56;;;;;;;10.00;4.70;;;20.80;77.20;;;;;;5013424;28;20452;-53
2022/06/17 06:04:54;;;;;;;6.77;3.93;;;20.60;76.60;;;;;;4996010;28;20477;-53
2022/06/17 06:07:23;;;;;;;9.43;3.70;;;20.50;76.30;;;;;;4995774;28;20491;-52
2022/06/17 06:09:50;;;;;;;9.20;4.37;;;20.80;76.20;;;;;;4995043;28;20512;-52
2022/06/17 06:12:18;;;;;;;5.20;3.90;;;21.00;75.90;;;;;;4995387;28;20477;-53
2022/06/17 06:14:46;;;;;;;6.90;4.10;;;20.60;75.00;;;;;;5013267;28;20448;-53
2022/06/17 06:17:14;;;;;;;10.70;4.43;;;20.80;74.90;;;;;;4995252;28;21048;-52
2022/06/17 06:19:42;;;;;;;5.07;3.63;;;21.00;74.80;;;;;;4995288;28;20580;-52
2022/06/17 06:22:10;;;;;;;5.67;3.90;;;21.20;74.40;;;;;;5013124;28;20537;-52
2022/06/17 06:24:38;;;;;;;7.40;3.93;;;21.50;74.50;;;;;;4995497;28;20541;-52
2022/06/17 06:27:05;;;;;;;4.90;3.70;;;21.50;74.30;;;;;;4995134;28;20434;-52
2022/06/17 06:29:37;;;;;;;13.13;4.00;;;21.50;74.20;;;;;;4995196;28;20445;-53
2022/06/17 06:32:04;;;;;;;5.33;3.90;;;21.50;73.70;;;;;;4994783;28;20575;-52
2022/06/17 06:34:41;;;;;;;7.93;4.13;;;21.50;73.50;;;;;;4995314;28;20456;-53
2022/06/17 06:37:12;;;;;;;6.53;3.43;;;21.70;73.40;;;;;;4994636;28;20604;-52
2022/06/17 06:39:39;;;;;;;6.30;3.83;;;21.70;73.20;;;;;;4994576;28;20510;-52
2022/06/17 06:42:06;;;;;;;6.73;3.50;;;21.50;72.80;;;;;;4995113;28;20542;-53
2022/06/17 06:44:38;;;;;;;7.47;3.87;;;21.50;72.90;;;;;;4994321;28;20576;-52
2022/06/17 06:47:20;;;;;;;6.30;3.43;;;21.60;72.90;;;;;;4995041;28;20505;-51
2022/06/17 06:49:54;;;;;;;8.50;5.03;;;21.50;72.30;;;;;;5011885;28;20895;-52
2022/06/17 06:52:26;;;;;;;6.33;3.60;;;21.60;72.10;;;;;;4994633;28;20480;-51
2022/06/17 06:54:53;;;;;;;4.50;2.90;;;21.90;72.30;;;;;;4994071;28;20557;-53
2022/06/17 06:57:19;;;;;;;6.40;3.43;;;21.60;71.70;;;;;;4994296;28;20504;-52
2022/06/17 06:59:47;;;;;;;5.70;3.43;;;21.70;71.30;;;;;;4993801;28;20459;-52
2022/06/17 07:02:14;;;;;;;6.00;3.23;;;21.30;70.30;;;;;;4993680;28;20472;-53
2022/06/17 07:04:41;;;;;;;4.77;3.20;;;21.70;70.60;;;;;;4994513;28;20451;-52
2022/06/17 07:07:09;;;;;;;4.20;3.40;;;21.70;70.50;;;;;;5012229;28;20553;-52
2022/06/17 07:09:37;;;;;;;8.73;3.80;;;21.50;70.40;;;;;;5011944;28;20446;-52
2022/06/17 07:12:05;;;;;;;6.73;3.27;;;21.50;70.40;;;;;;5011710;28;20490;-52
2022/06/17 07:14:31;;;;;;;9.23;3.33;;;21.60;70.60;;;;;;5012138;28;20430;-54
2022/06/17 07:16:58;;;;;;;8.47;3.47;;;21.70;70.60;;;;;;5012113;28;20431;-52
2022/06/17 07:19:25;;;;;;;4.47;2.93;;;21.60;70.50;;;;;;5011554;28;20990;-52
2022/06/17 07:21:51;;;;;;;6.50;2.50;;;21.70;70.50;;;;;;5011494;28;20455;-52
2022/06/17 07:24:18;;;;;;;7.83;2.87;;;21.80;70.50;;;;;;5011565;28;20511;-52
2022/06/17 07:26:46;;;;;;;3.60;2.97;;;21.70;70.20;;;;;;5011557;28;20570;-51
2022/06/17 07:29:13;;;;;;;4.33;2.90;;;22.00;70.40;;;;;;5011483;28;20442;-52
2022/06/17 07:31:40;;;;;;;5.97;3.40;;;21.70;69.60;;;;;;5011404;28;20521;-52
2022/06/17 07:34:07;;;;;;;5.33;2.60;;;21.30;69.20;;;;;;5011224;28;20818;-52
2022/06/17 07:42:06;;;;;;;5.40;2.80;;;21.70;70.00;;;;;;5011343;28;20524;-52
2022/06/17 07:44:33;;;;;;;5.10;2.70;;;21.80;69.80;;;;;;5011477;28;20443;-52
2022/06/17 07:46:59;;;;;;;4.70;2.70;;;21.90;70.00;;;;;;5010841;28;20479;-52
2022/06/17 07:49:26;;;;;;;7.77;3.10;;;21.70;70.00;;;;;;5010885;28;20443;-52
2022/06/17 07:51:52;;;;;;;3.93;3.30;;;21.80;70.20;;;;;;5011438;28;20623;-52
2022/06/17 07:54:19;;;;;;;3.87;2.70;;;21.90;70.00;;;;;;5010842;28;20463;-53
2022/06/17 07:56:46;;;;;;;5.23;3.00;;;21.70;70.00;;;;;;5011176;28;20432;-53
2022/06/17 07:59:14;;;;;;;3.60;2.73;;;21.80;70.90;;;;;;5010937;28;20765;-52
2022/06/17 08:01:41;;;;;;;6.40;2.73;;;21.60;69.90;;;;;;5011107;28;20471;-52
2022/06/17 08:04:07;;;;;;;9.47;2.90;;;21.80;69.80;;;;;;5011803;28;20435;-52
2022/06/17 08:06:34;;;;;;;4.50;2.37;;;21.70;69.20;;;;;;5011768;28;20832;-53
2022/06/17 08:09:01;;;;;;;4.13;2.50;;;21.90;69.10;;;;;;4993275;28;20515;-53
2022/06/17 08:11:27;;;;;;;4.77;2.60;;;21.90;68.90;;;;;;4992950;28;20474;-52
2022/06/17 08:13:54;;;;;;;5.27;2.70;;;22.10;68.90;;;;;;5011310;28;20744;-52
2022/06/17 08:16:22;;;;;;;9.03;3.70;;;21.80;68.20;;;;;;5011136;28;20538;-51
2022/06/17 08:18:56;;;;;;;4.03;2.80;;;22.10;68.20;;;;;;5010479;28;20442;-51
2022/06/17 08:21:23;;;;;;;5.13;2.10;;;22.50;66.80;;;;;;5010731;28;20832;-52
2022/06/17 08:23:49;;;;;;;4.47;2.10;;;22.50;67.20;;;;;;5010831;28;20866;-52
2022/06/17 08:26:16;;;;;;;5.13;2.30;;;22.40;66.80;;;;;;5010563;28;20480;-51
2022/06/17 08:28:43;;;;;;;3.60;2.20;;;22.40;67.00;;;;;;5010661;28;20433;-51
2022/06/17 08:31:09;;;;;;;5.63;3.23;;;21.80;66.50;;;;;;5010348;28;20475;-51
2022/06/17 08:33:37;;;;;;;4.97;2.47;;;22.00;66.60;;;;;;5010829;28;20442;-51
2022/06/17 08:36:07;;;;;;;5.27;2.20;;;22.20;66.50;;;;;;5010933;28;20438;-51
2022/06/17 08:38:40;;;;;;;3.70;2.43;;;22.50;66.20;;;;;;5010560;28;20428;-51
2022/06/17 08:41:14;;;;;;;4.17;2.30;;;22.60;66.20;;;;;;5010609;28;20464;-51
2022/06/17 08:44:12;;;;;;;5.17;2.40;;;22.40;65.30;;;;;;5010670;28;20895;-51
2022/06/17 08:46:50;;;;;;;4.87;2.70;;;22.50;65.20;;;;;;5009964;28;20479;-51
2022/06/17 08:49:38;;;;;;;10.00;2.20;;;22.40;64.80;;;;;;5007874;28;20444;-50
2022/06/17 08:52:20;;;;;;;19.83;2.80;;;22.60;64.30;;;;;;5010950;28;20959;-49
2022/06/17 08:55:00;;;;;;;8.13;2.57;;;22.70;64.40;;;;;;5011160;28;20440;-50
2022/06/17 08:57:33;;;;;;;4.07;1.90;;;22.70;63.70;;;;;;5010025;28;20464;-50
2022/06/17 09:00:08;;;;;;;8.83;2.20;;;22.40;62.90;;;;;;5010200;28;20539;-50
2022/06/17 09:02:49;;;;;;;8.17;2.33;;;23.20;63.90;;;;;;5010232;28;20486;-49
2022/06/17 09:05:28;;;;;;;4.63;1.80;;;22.50;62.50;;;;;;5010433;28;20476;-49
2022/06/17 09:08:03;;;;;;;5.87;2.00;;;22.80;62.40;;;;;;5009702;28;20447;-51
2022/06/17 09:10:38;;;;;;;3.10;2.00;;;22.90;61.60;;;;;;5010233;28;20938;-50
2022/06/17 09:13:21;;;;;;;2.20;1.53;;;22.80;61.20;;;;;;4992824;28;20482;-51
2022/06/17 09:15:56;;;;;;;5.73;2.73;;;22.90;61.00;;;;;;5010825;28;20441;-51
2022/06/17 09:18:29;;;;;;;4.87;1.70;;;22.80;60.90;;;;;;5010898;28;20882;-49
2022/06/17 09:21:01;;;;;;;3.23;1.60;;;22.90;60.20;;;;;;5010410;28;20494;-49
2022/06/17 09:23:33;;;;;;;3.83;1.87;;;22.90;59.80;;;;;;5010358;28;20440;-51
2022/06/17 09:26:00;;;;;;;3.63;1.90;;;22.90;60.50;;;;;;4996200;28;20839;-51
2022/06/17 09:28:34;;;;;;;4.10;1.63;;;23.00;60.20;;;;;;5013777;28;20439;-51
2022/06/17 09:31:05;;;;;;;3.83;1.53;;;22.90;59.30;;;;;;5013978;28;20456;-51
2022/06/17 09:33:38;;;;;;;6.63;2.00;;;22.90;59.10;;;;;;5013318;28;20449;-50
2022/06/17 09:36:12;;;;;;;2.13;1.67;;;22.80;59.10;;;;;;5013633;28;20440;-51
2022/06/17 09:38:45;;;;;;;3.03;1.87;;;22.80;59.20;;;;;;5013579;28;20878;-51
2022/06/17 09:41:16;;;;;;;2.70;2.17;;;22.90;59.50;;;;;;5013621;28;20479;-51
2022/06/17 09:43:48;;;;;;;2.03;1.63;;;22.90;59.00;;;;;;5013541;28;20437;-51
2022/06/17 09:46:20;;;;;;;4.37;1.93;;;22.90;59.00;;;;;;5013249;28;21027;-50
2022/06/17 09:48:55;;;;;;;4.00;1.67;;;23.00;58.60;;;;;;5012899;28;20442;-50
2022/06/17 09:51:29;;;;;;;3.07;1.90;;;23.00;59.00;;;;;;5013217;28;20467;-50
2022/06/17 09:54:02;;;;;;;4.60;1.80;;;23.10;59.00;;;;;;5012927;28;20487;-50
2022/06/17 09:56:35;;;;;;;3.67;1.20;;;23.10;58.60;;;;;;5013560;28;20472;-49
2022/06/17 09:59:07;;;;;;;3.70;1.30;;;23.00;56.90;;;;;;5013596;28;20432;-51
2022/06/17 10:01:34;;;;;;;2.67;1.33;;;23.00;57.30;;;;;;5013110;28;20492;-50
2022/06/17 10:04:01;;;;;;;2.80;1.70;;;23.00;57.00;;;;;;4995778;28;20453;-50
2022/06/17 10:06:40;;;;;;;3.83;1.97;;;23.00;57.40;;;;;;5012964;28;20475;-50
2022/06/17 10:09:26;;;;;;;3.17;1.57;;;23.10;57.20;;;;;;5012376;28;20447;-50
2022/06/17 10:11:58;;;;;;;1.50;1.30;;;23.10;57.10;;;;;;5012717;28;20548;-50
2022/06/17 10:14:44;;;;;;;2.73;1.20;;;22.90;56.10;;;;;;5012934;28;20434;-50
2022/06/17 10:20:21;;;;;;;1.87;1.10;;;23.20;55.80;;;;;;5012707;28;20569;-50
2022/06/17 10:22:58;;;;;;;4.60;1.50;;;23.10;56.50;;;;;;4995014;28;20465;-51
2022/06/17 10:25:34;;;;;;;2.73;1.50;;;23.20;57.10;;;;;;5012912;28;20438;-51
2022/06/17 10:28:13;;;;;;;10.50;1.80;;;23.00;56.90;;;;;;5012192;28;20480;-50
2022/06/17 10:30:46;;;;;;;2.43;1.97;;;23.40;57.50;;;;;;5012173;28;20441;-51
2022/06/17 10:33:16;;;;;;;2.60;1.73;;;23.40;57.30;;;;;;5012742;28;20467;-51
2022/06/17 10:35:45;;;;;;;2.40;1.50;;;23.50;57.30;;;;;;4994569;28;20463;-51
2022/06/17 10:38:18;;;;;;;3.53;1.80;;;23.60;56.90;;;;;;5012023;28;20442;-50
2022/06/17 10:40:45;;;;;;;2.77;1.57;;;23.80;56.50;;;;;;5012009;28;20452;-51
2022/06/17 10:43:15;;;;;;;3.40;1.60;;;23.60;57.00;;;;;;5012458;28;20582;-50
2022/06/17 10:45:42;;;;;;;2.80;1.73;;;23.70;57.10;;;;;;5011725;28;20430;-51
2022/06/17 10:48:20;;;;;;;3.67;2.03;;;23.90;57.10;;;;;;5011879;28;20848;-51
2022/06/17 10:50:47;;;;;;;2.00;1.43;;;23.70;56.40;;;;;;5012106;28;20462;-51
2022/06/17 10:53:21;;;;;;;2.03;1.60;;;23.70;55.60;;;;;;4994620;28;20529;-50
2022/06/17 10:55:49;;;;;;;3.30;1.87;;;23.70;56.50;;;;;;5012186;28;20849;-51
2022/06/17 10:58:19;;;;;;;6.07;2.10;;;23.80;56.60;;;;;;5012091;28;20442;-50
2022/06/17 11:00:54;;;;;;;6.47;1.77;;;23.60;56.40;;;;;;5011463;28;20447;-50
2022/06/17 11:03:28;;;;;;;3.13;1.47;;;23.70;56.40;;;;;;5012628;28;20500;-50
2022/06/17 11:06:00;;;;;;;2.57;1.63;;;24.00;56.20;;;;;;5011608;28;20931;-51
2022/06/17 11:08:32;;;;;;;3.60;1.80;;;24.00;55.80;;;;;;5011644;28;20483;-51
2022/06/17 11:12:02;;;;;;;2.07;1.60;;;24.00;55.20;;;;;;5011777;28;20540;-49
2022/06/17 11:13:50;;;;;;;1.90;1.50;;;24.00;55.80;;;;;;5011249;28;20475;-50
2022/06/17 11:16:19;;;;;;;2.63;1.60;;;24.00;55.80;;;;;;4993975;28;20450;-50
2022/06/17 11:18:56;;;;;;;8.63;2.47;;;24.10;55.40;;;;;;5011066;28;20525;-49
2022/06/17 11:21:26;;;;;;;1.90;1.40;;;24.10;55.20;;;;;;5011687;28;20545;-50
2022/06/17 11:23:58;;;;;;;2.30;1.37;;;23.60;54.80;;;;;;5011914;28;20800;-50
2022/06/17 11:26:30;;;;;;;5.10;1.80;;;24.10;55.70;;;;;;5011398;28;20952;-50
2022/06/17 11:29:00;;;;;;;3.07;1.53;;;24.20;55.90;;;;;;5011538;28;20435;-51
2022/06/17 11:31:38;;;;;;;2.10;1.47;;;24.00;55.80;;;;;;5011633;28;20868;-50
2022/06/17 11:34:13;;;;;;;2.03;1.20;;;24.10;55.60;;;;;;4994086;28;20891;-51
2022/06/17 11:36:58;;;;;;;2.40;1.40;;;24.10;55.60;;;;;;5011368;28;21034;-51
2022/06/17 11:39:31;;;;;;;3.37;2.10;;;24.20;55.40;;;;;;5010459;28;20431;-51
2022/06/17 11:41:59;;;;;;;3.17;1.70;;;24.20;55.50;;;;;;5011211;28;20534;-51
2022/06/17 11:44:26;;;;;;;2.53;1.70;;;24.30;55.70;;;;;;5011097;28;20435;-51
2022/06/17 11:46:56;;;;;;;3.20;1.43;;;24.30;54.20;;;;;;5009660;28;20484;-51
2022/06/17 11:49:24;;;;;;;2.03;1.50;;;24.30;54.10;;;;;;5010068;28;20954;-51
2022/06/17 11:51:58;;;;;;;2.77;1.20;;;24.40;54.60;;;;;;5010083;28;20456;-51
2022/06/17 11:54:30;;;;;;;1.60;1.47;;;24.80;54.30;;;;;;5009966;28;20835;-50
2022/06/17 11:56:58;;;;;;;2.97;2.00;;;24.40;53.90;;;;;;5009790;28;20556;-50
2022/06/17 11:59:29;;;;;;;2.67;1.60;;;24.40;54.30;;;;;;5009620;28;21047;-51
2022/06/17 12:02:06;;;;;;;5.33;1.93;;;24.40;54.30;;;;;;5010490;28;20463;-50
2022/06/17 12:04:38;;;;;;;2.47;1.60;;;24.60;54.20;;;;;;5010335;28;20454;-49
2022/06/17 12:07:29;;;;;;;5.03;2.00;;;24.70;54.20;;;;;;5010459;28;20478;-50
2022/06/17 12:10:05;;;;;;;2.60;2.00;;;24.80;54.20;;;;;;5010605;28;20442;-51
2022/06/17 12:12:33;;;;;;;5.20;3.00;;;24.90;53.90;;;;;;5011210;28;20466;-50
2022/06/17 12:15:06;;;;;;;2.77;1.30;;;24.90;53.70;;;;;;5010724;28;20439;-50
2022/06/17 12:17:34;;;;;;;2.97;1.80;;;25.00;53.60;;;;;;5011039;28;20443;-50
2022/06/17 12:20:02;;;;;;;3.30;1.43;;;25.10;53.50;;;;;;5010565;28;20436;-50
2022/06/17 12:22:34;;;;;;;3.50;1.57;;;25.20;53.20;;;;;;5010458;28;20471;-50
2022/06/17 12:25:15;;;;;;;3.90;1.40;;;25.20;52.70;;;;;;5010720;28;20811;-50
2022/06/17 12:27:47;;;;;;;3.73;1.70;;;25.30;52.60;;;;;;5010643;28;20794;-50
2022/06/17 12:30:19;;;;;;;6.80;1.90;;;25.30;52.80;;;;;;5010255;28;20801;-50
2022/06/17 12:32:52;;;;;;;3.30;1.40;;;25.40;52.80;;;;;;5010380;28;20452;-51
2022/06/17 12:35:25;;;;;;;3.57;1.77;;;25.40;52.30;;;;;;5010945;28;20454;-52
2022/06/17 12:37:59;;;;;;;1.90;1.30;;;25.40;51.80;;;;;;5010600;28;20823;-50
2022/06/17 12:40:34;;;;;;;2.63;1.20;;;25.50;52.10;;;;;;5009941;28;20455;-50
2022/06/17 12:43:07;;;;;;;1.70;1.40;;;25.50;52.50;;;;;;5010999;28;20447;-52
2022/06/17 12:45:40;;;;;;;4.03;1.63;;;25.60;52.10;;;;;;5010366;28;20492;-54
2022/06/17 12:48:18;;;;;;;3.20;1.40;;;25.60;51.80;;;;;;5009834;28;20488;-51
2022/06/17 12:53:44;;;;;;;8.87;1.90;;;25.80;51.20;;;;;;5009842;28;20508;-53
2022/06/17 12:56:30;;;;;;;5.03;1.57;;;25.90;50.80;;;;;;5010014;28;20452;-53
2022/06/17 12:59:18;;;;;;;3.10;1.80;;;26.00;49.90;;;;;;5012672;28;20439;-51
2022/06/17 13:01:55;;;;;;;2.43;1.33;;;26.20;49.90;;;;;;5014247;28;20845;-52
2022/06/17 13:04:40;;;;;;;3.23;1.40;;;26.20;49.80;;;;;;5014243;28;20436;-52
2022/06/17 13:07:15;;;;;;;2.50;1.60;;;26.20;49.60;;;;;;4996370;28;20821;-52
2022/06/17 13:09:50;;;;;;;4.27;1.63;;;26.20;49.80;;;;;;5013764;28;20842;-52
2022/06/17 13:12:25;;;;;;;5.73;2.07;;;26.30;49.50;;;;;;4995930;28;20836;-51
2022/06/17 13:15:00;;;;;;;3.73;1.77;;;26.40;49.40;;;;;;5014439;28;20438;-52
2022/06/17 13:17:32;;;;;;;7.40;2.00;;;26.60;49.00;;;;;;5013974;28;20443;-51
2022/06/17 13:20:05;;;;;;;2.27;1.67;;;26.70;48.30;;;;;;5013526;28;20451;-52